Tiempo atmosférico en la estación meteorológica de Alcala de Henares, Madrid (605 m.)



Fecha
DESCASC
Temp. máxima en grados centígrados (hora)
DESCASC
Temp. mínima en grados centígrados (hora)
DESCASC
Temp. media en grados centígrados
DESCASC
Racha de viento máxima en m/sg (hora)
DESCASC
Velocidad máxima media en intervalos de 10 minutos(hora)
DESCASC
Precipitaciones diarias en mm
DESCASC
Precipitaciones de 00:00 a 06:00 en mm
DESCASC
Precipitaciones de 06:00 a 12:00 en mm
DESCASC
Precipitaciones de 12:00 a 18:00 en mm
DESCASC
Precipitaciones de 18:00 a 24:00 en mm
DESCASC
25-01-2020 11.3 (13:50) 4.4 (00:20) 7.9 9.72 (14:30) 6.11 (15:00) 7.2 2.4 0 0.4 4.4
24-01-2020 10.1 (13:40) 4.6 (23:59) 7.4 7.5 (12:20) 4.72 (12:20) 0.6 0 0.6 0 0
23-01-2020 10.6 (16:40) 0.1 (07:10) 5.4 5.56 (22:40) 3.89 (11:00) 0 0 0 0 0
22-01-2020 11.3 (13:50) 3.3 (00:00) 7.3 8.89 (00:20) 6.39 (00:20) 0 0 0 0 0
21-01-2020 7.9 (14:10) 4 (00:00) 6 16.94 (14:00) 11.39 (08:10) 0.4 0 0 0.2 0.2
20-01-2020 7 (13:00) 1.8 (00:00) 4.4 18.61 (13:30) 12.22 (13:30) 0 0 0 0 0
19-01-2020 9.5 (14:30) 2.4 (00:00) 6 21.39 (13:00) 13.61 (13:10) 0.8 0 0.8 0 0
18-01-2020 9.2 (16:20) 2.3 (00:00) 5.7 8.61 (21:40) 5 (21:40) 2.8 0 0 0.4 2.4
17-01-2020 13.5 (16:40) 3.5 (00:00) 8.5 9.44 (14:40) 6.39 (14:40) 0 0 0 0 0
16-01-2020 14.2 (16:20) 4.3 (00:00) 9.3 6.39 (16:10) 4.17 (16:10) 0 0 0 0 0
15-01-2020 9.3 (16:00) 0.9 (00:00) 5.1 5 (06:20) 3.06 (06:20) 0 0 0 0 0
14-01-2020 9.6 (16:00) -5.2 (-00:0) 2.2 6.11 (14:20) 3.33 (15:20) 0 0 0 0 0
13-01-2020 9.7 (16:20) -5.6 (-00:0) 2 6.11 (16:40) 4.17 (16:40) 0 0 0 0 0
12-01-2020 11.1 (17:10) -5 (-00:0) 3.1 3.61 (05:40) 2.5 (11:00) 0 0 0 0 0
11-01-2020 12.3 (16:00) -4.4 (-00:0) 4 5 (10:20) 3.06 (10:20) 0 0 0 0 0
10-01-2020 11.7 (14:20) -1.3 (-00:0) 5.2 10.83 (15:50) 6.94 (16:30) 0 0 0 0 0
09-01-2020 14.3 (16:00) -1.3 (-00:0) 6.5 4.44 (14:40) 2.78 (16:20) 0 0 0 0 0
08-01-2020 16.4 (15:40) -3.1 (-00:0) 6.6 3.61 (11:20) 2.5 (11:20) 0 0 0 0 0
07-01-2020 14.8 (16:20) -2.5 (-00:0) 6.2 5 (10:40) 3.06 (10:40) 0 0 0 0 0
06-01-2020 14.3 (16:00) -3.4 (-00:0) 5.5 3.06 (16:50) 1.94 (16:40) 0 0 0 0 0
05-01-2020 12.7 (16:30) -2.5 (-00:0) 5.1 4.17 (14:20) 3.06 (11:00) 0 0 0 0 0
04-01-2020 12.5 (15:10) -0.1 (00:00) 6.2 9.17 (13:50) 6.39 (13:50) 0.2 0 0.2 0 0
03-01-2020 5.9 (15:50) -2.3 (-00:0) 1.8 3.06 (21:00) 1.94 (21:00) 0 0 0 0 0
02-01-2020 12.9 (15:50) -3.3 (-00:0) 4.8 3.33 (11:20) 2.5 (11:20) 0 0 0 0 0
01-01-2020 13.6 (16:20) -2.4 (-00:0) 5.6 3.89 (10:40) 2.78 (10:40) 0.2 0 0.2 0 0
31-12-2019 -- (--) -- (--) -- -- (--) -- (--) -- -- -- -- --
30-12-2019 -- (--) -- (--) -- -- (--) -- (--) -- 0 0 -- 0
29-12-2019 15.3 (16:40) -2.2 (-00:0) 6.6 4.44 (11:00) 3.06 (11:00) 0 0 0 0 0
28-12-2019 16.7 (17:10) -3.1 (-00:0) 6.8 4.17 (02:10) 2.78 (12:00) 0 0 0 0 0

Gráficas

Temp. máximas Temp. mínimas Temp. medias Precipitaciones Rachas de viento máximas Velocidades máximas media en intervalos de 10 minutos

Datos horarios

Fecha y hora oficial Temperatura (ºC) Velocidad del viento (km/h) Dirección del viento Racha (km/h) Dirección de racha Precipitación (mm) Presión (hPa) Tendencia (hPa) Humedad (%)
2020-01-26 23:00:00 4.2 3 Nordeste 5 Nordeste 0 -- -- 90
2020-01-26 22:00:00 5.2 0 Calma 10 Sur 0 -- -- 88
2020-01-26 21:00:00 6.2 8 Sur 13 Sur 0 -- -- 86
2020-01-26 20:00:00 6.9 5 Sudoeste 16 Sudoeste 0 -- -- 85
2020-01-26 19:00:00 8.3 8 Sudoeste 16 Sudoeste 0 -- -- 80
2020-01-26 18:00:00 9.7 6 Sudoeste 17 Sudoeste 0 -- -- 68
2020-01-26 17:00:00 11.6 9 Sudoeste 15 Sudoeste 0 -- -- 60
2020-01-26 16:00:00 11.6 8 Sudoeste 15 Sudoeste 0 -- -- 59
2020-01-26 15:00:00 10.4 5 Oeste 12 Sudoeste 0 -- -- 64
2020-01-26 14:00:00 10.3 6 Oeste 12 Sudoeste 0 -- -- 70
2020-01-26 13:00:00 9 3 Sudeste 10 Sudoeste 0 -- -- 79
2020-01-26 12:00:00 8 5 Oeste 11 Oeste 0 -- -- 84
2020-01-26 11:00:00 7.2 5 Sudoeste 10 Sur 0 -- -- 95
2020-01-26 10:00:00 6.1 5 Sudoeste 10 Sudoeste 0 -- -- 98
2020-01-26 09:00:00 5.9 3 Sudoeste 5 Sudoeste 0 -- -- 98
2020-01-26 08:00:00 5.8 2 Sur 4 Sudeste 0 -- -- 98
2020-01-26 07:00:00 5.6 0 Calma 2 Sudeste 0 -- -- 97
2020-01-26 06:00:00 5.3 0 Calma 4 Este 0 -- -- 97
2020-01-26 05:00:00 5 0 Calma 4 Este 0 -- -- 97
2020-01-26 04:00:00 3.9 0 Calma 3 Sudoeste 0 -- -- 96
2020-01-26 03:00:00 5.2 3 Sur 5 Oeste 0 -- -- 95
2020-01-26 02:00:00 6.2 0 Calma 4 Norte 0 -- -- 96
2020-01-26 01:00:00 6.6 2 Norte 4 Nordeste 0 -- -- 96
2020-01-26 00:00:00 6.8 3 Este 12 Nordeste 0 -- -- 96
2020-01-25 23:00:00 7 2 Este 10 Norte 2.4 -- -- 96
2020-01-25 22:00:00 7.1 6 Norte 10 Norte 1.4 -- -- 95
2020-01-25 21:00:00 7.3 5 Nordeste 9 Nordeste 0 -- -- 95
2020-01-25 20:00:00 7.5 2 Nordeste 5 Nordeste 0.4 -- -- 93
2020-01-25 19:00:00 7.7 3 Nordeste 4 Este 0.2 -- -- 91
2020-01-25 18:00:00 8.2 0 Calma 9 Sur 0.2 -- -- 88
2020-01-25 17:00:00 9 8 Sur 18 Sur 0 -- -- 80
2020-01-25 16:00:00 9.6 13 Sur 26 Sudeste 0 -- -- 79
2020-01-25 15:00:00 9.9 22 Sur 35 Sudeste 0 -- -- 76
2020-01-25 14:00:00 11 17 Sudeste 33 Sur 0.2 -- -- 74
2020-01-25 13:00:00 11.2 16 Sur 25 Sudeste 0 -- -- 77
2020-01-25 12:00:00 10.5 13 Sur 25 Sur 0 -- -- 76
2020-01-25 11:00:00 9.2 12 Sur 22 Sur 0 -- -- 83
2020-01-25 10:00:00 8.3 12 Sur 19 Sudeste 0 -- -- 86
2020-01-25 09:00:00 7.8 12 Sur 31 Sudeste 0 -- -- 87
2020-01-25 08:00:00 7.8 16 Sur 30 Sudeste 0 -- -- 88
2020-01-25 07:00:00 7.5 12 Sudeste 21 Sur 0 -- -- 93
2020-01-25 06:00:00 6.6 0 Calma 10 Sudeste 1.2 -- -- 95
2020-01-25 05:00:00 6.2 6 Nordeste 8 Nordeste 1 -- -- 94
2020-01-25 04:00:00 5.9 2 Este 9 Nordeste 0.2 -- -- 94
2020-01-25 03:00:00 5.6 5 Nordeste 8 Nordeste 0 -- -- 94
2020-01-25 02:00:00 5.3 6 Este 9 Nordeste 0 -- -- 95
2020-01-25 01:00:00 4.6 4 Nordeste 5 Este 0 -- -- 94
2020-01-25 00:00:00 4.6 3 Nordeste 5 Nordeste 0 -- -- 92
2020-01-24 23:00:00 6.2 2 Este 7 Nordeste 0 -- -- 88
2020-01-24 22:00:00 7.2 3 Oeste 10 Norte 0 -- -- 88
2020-01-24 21:00:00 7.7 5 Norte 14 Nordeste 0 -- -- 87
2020-01-24 20:00:00 8.1 6 Nordeste 15 Este 0 -- -- 84
2020-01-24 19:00:00 8.3 5 Sudeste 12 Sur 0 -- -- 82
2020-01-24 18:00:00 8.8 2 Sur 9 Sudeste 0 -- -- 81
2020-01-24 17:00:00 9.2 5 Sur 12 Sur 0 -- -- 80
2020-01-24 16:00:00 9.4 8 Sur 17 Sur 0 -- -- 76
2020-01-24 15:00:00 9.3 11 Sur 19 Sudeste 0 -- -- 77
2020-01-24 14:00:00 9.7 13 Sudeste 24 Sudeste 0 -- -- 77
2020-01-24 13:00:00 8.5 11 Sudeste 27 Sur 0 -- -- 84
2020-01-24 12:00:00 7.3 12 Sudeste 23 Sudeste 0.2 -- -- 87
2020-01-24 11:00:00 6.8 9 Sur 17 Sudeste 0.2 -- -- 87
2020-01-24 10:00:00 6.8 9 Sur 15 Sudeste 0 -- -- 87
2020-01-24 09:00:00 6.3 0 Calma 5 Nordeste 0.2 -- -- 88
2020-01-24 08:00:00 5.9 3 Nordeste 4 Nordeste 0 -- -- 88
2020-01-24 07:00:00 6.1 2 Este 5 Sudeste 0 -- -- 85
2020-01-24 06:00:00 6.7 0 Calma 9 Nordeste 0 -- -- 84
2020-01-24 05:00:00 6.9 6 Nordeste 10 Nordeste 0 -- -- 82
2020-01-24 04:00:00 7.3 5 Nordeste 11 Nordeste 0 -- -- 81
2020-01-24 03:00:00 7.9 6 Nordeste 12 Norte 0 -- -- 79
2020-01-24 02:00:00 7.9 7 Nordeste 15 Nordeste 0 -- -- 78
2020-01-24 01:00:00 8 3 Nordeste 11 Este 0 -- -- 77
2020-01-24 00:00:00 8 3 Este 12 Sudeste 0 -- -- 76
2020-01-23 23:00:00 8.4 4 Sudeste 20 Sudeste 0 -- -- 74
2020-01-23 22:00:00 8.1 3 Sudeste 11 Sudeste 0 -- -- 76
2020-01-23 21:00:00 8 2 Norte 10 Sur 0 -- -- 76
2020-01-23 20:00:00 8.4 4 Nordeste 10 Nordeste 0 -- -- 74
2020-01-23 19:00:00 8.5 6 Nordeste 11 Este 0 -- -- 75
2020-01-23 18:00:00 9.8 4 Sudeste 12 Este 0 -- -- 69
2020-01-23 17:00:00 10.4 8 Este 14 Este 0 -- -- 67
2020-01-23 16:00:00 10.4 2 Nordeste 9 Este 0 -- -- 65
2020-01-23 15:00:00 9.8 4 Sudeste 13 Sudeste 0 -- -- 68
2020-01-23 14:00:00 9.4 3 Nordeste 8 Nordeste 0 -- -- 70
2020-01-23 13:00:00 9.3 3 Sur 13 Nordeste 0 -- -- 73
2020-01-23 12:00:00 7.2 9 Nordeste 18 Nordeste 0 -- -- 77
2020-01-23 11:00:00 5.4 14 Nordeste 18 Nordeste 0 -- -- 84
2020-01-23 10:00:00 3.2 11 Nordeste 14 Nordeste 0 -- -- 94
2020-01-23 09:00:00 0.1 7 Nordeste 15 Nordeste 0 -- -- 94
2020-01-23 08:00:00 0.5 11 Nordeste 16 Nordeste 0 -- -- 93
2020-01-23 07:00:00 0.2 6 Nordeste 12 Nordeste 0 -- -- 93
2020-01-23 06:00:00 0.6 8 Nordeste 14 Nordeste 0 -- -- 92
2020-01-23 05:00:00 0.9 10 Nordeste 15 Nordeste 0 -- -- 92
2020-01-23 04:00:00 1.3 8 Nordeste 12 Nordeste 0 -- -- 91
2020-01-23 03:00:00 1.7 9 Este 14 Este 0 -- -- 90
2020-01-23 02:00:00 2.1 8 Nordeste 15 Nordeste 0 -- -- 89
2020-01-23 01:00:00 2.7 10 Nordeste 15 Nordeste 0 -- -- 88
2020-01-23 00:00:00 3.3 8 Nordeste 21 Nordeste 0 -- -- 86
2020-01-22 23:00:00 4.6 12 Nordeste 21 Nordeste 0 -- -- 84
2020-01-22 22:00:00 4.9 10 Este 18 Nordeste 0 -- -- 85
2020-01-22 21:00:00 5.1 7 Este 26 Nordeste 0 -- -- 82
2020-01-22 20:00:00 6.4 11 Nordeste 28 Nordeste 0 -- -- 77
2020-01-22 19:00:00 6.9 19 Nordeste 32 Nordeste 0 -- -- 73
2020-01-22 18:00:00 8.3 18 Nordeste 32 Nordeste 0 -- -- 69
2020-01-22 17:00:00 10.3 15 Norte 26 Norte 0 -- -- 64
2020-01-22 16:00:00 10.6 10 Nordeste 18 Norte 0 -- -- 61
2020-01-22 15:00:00 10.6 10 Nordeste 16 Nordeste 0 -- -- 63
2020-01-22 14:00:00 11.3 10 Este 22 Nordeste 0 -- -- 57
2020-01-22 13:00:00 9.5 14 Nordeste 22 Nordeste 0 -- -- 69
2020-01-22 12:00:00 8.4 12 Nordeste 22 Nordeste 0 -- -- 72
2020-01-22 11:00:00 7.4 14 Nordeste 24 Nordeste 0 -- -- 75
2020-01-22 10:00:00 6.2 15 Nordeste 24 Nordeste 0 -- -- 78
2020-01-22 09:00:00 5.8 17 Nordeste 29 Nordeste 0 -- -- 78
2020-01-22 08:00:00 5.4 14 Nordeste 30 Nordeste 0 -- -- 79
2020-01-22 07:00:00 5.6 19 Nordeste 31 Nordeste 0 -- -- 77
2020-01-22 06:00:00 5.5 21 Nordeste 31 Nordeste 0 -- -- 76
2020-01-22 05:00:00 5.4 17 Nordeste 31 Nordeste 0 -- -- 77
2020-01-22 04:00:00 5.5 16 Nordeste 30 Nordeste 0 -- -- 77
2020-01-22 03:00:00 5.4 19 Nordeste 31 Nordeste 0 -- -- 80
2020-01-22 02:00:00 5.3 17 Nordeste 27 Nordeste 0 -- -- 81
2020-01-22 01:00:00 4.7 14 Nordeste 32 Nordeste 0 -- -- 84
2020-01-22 00:00:00 5.4 20 Nordeste 32 Nordeste 0 -- -- 81
2020-01-21 23:00:00 5.3 24 Nordeste 33 Nordeste 0 -- -- 82
2020-01-21 22:00:00 5.8 22 Nordeste 36 Nordeste 0 -- -- 80
2020-01-21 21:00:00 5.8 22 Nordeste 36 Nordeste 0.2 -- -- 80
2020-01-21 20:00:00 5.6 21 Nordeste 33 Nordeste 0 -- -- 81
2020-01-21 19:00:00 5.4 21 Nordeste 37 Nordeste 0 -- -- 81
2020-01-21 18:00:00 5.2 26 Nordeste 45 Nordeste 0 -- -- 83
2020-01-21 17:00:00 5.2 31 Nordeste 49 Nordeste 0.2 -- -- 82
2020-01-21 16:00:00 5.9 27 Nordeste 58 Nordeste 0 -- -- 78
2020-01-21 15:00:00 7.5 35 Nordeste 51 Nordeste 0 -- -- 63
2020-01-21 14:00:00 7.8 35 Nordeste 61 Nordeste 0 -- -- 62
2020-01-21 13:00:00 7.2 38 Nordeste 52 Nordeste 0 -- -- 64
2020-01-21 12:00:00 6.4 27 Nordeste 50 Nordeste 0 -- -- 67
2020-01-21 11:00:00 5.3 25 Nordeste 42 Nordeste 0 -- -- 72
2020-01-21 10:00:00 5.6 27 Nordeste 47 Nordeste 0 -- -- 69
2020-01-21 09:00:00 5 28 Nordeste 59 Nordeste 0 -- -- 69
2020-01-21 08:00:00 4.9 34 Nordeste 52 Nordeste 0 -- -- 68
2020-01-21 07:00:00 4.9 37 Nordeste 57 Nordeste 0 -- -- 68
2020-01-21 06:00:00 4.2 22 Nordeste 41 Nordeste 0 -- -- 69
2020-01-21 05:00:00 4 26 Nordeste 43 Nordeste 0 -- -- 68
2020-01-21 04:00:00 4.3 28 Nordeste 50 Nordeste 0 -- -- 66
2020-01-21 03:00:00 4.4 27 Nordeste 52 Nordeste 0 -- -- 65
2020-01-21 02:00:00 4.6 37 Nordeste 59 Nordeste 0 -- -- 64
2020-01-21 01:00:00 4.8 35 Nordeste 58 Nordeste 0 -- -- 62
2020-01-21 00:00:00 4.8 30 Nordeste 55 Nordeste 0 -- -- 62
2020-01-20 23:00:00 4.7 32 Nordeste 57 Nordeste 0 -- -- 63
2020-01-20 22:00:00 4.5 36 Nordeste 56 Nordeste 0 -- -- 60
2020-01-20 21:00:00 4.7 39 Nordeste 58 Nordeste 0 -- -- 59
2020-01-20 20:00:00 4.9 33 Nordeste 64 Nordeste 0 -- -- 59
2020-01-20 19:00:00 5 30 Nordeste 63 Nordeste 0 -- -- 59
2020-01-20 18:00:00 5.3 32 Nordeste 51 Nordeste 0 -- -- 57
2020-01-20 17:00:00 5.4 32 Nordeste 65 Nordeste 0 -- -- 55
2020-01-20 16:00:00 6.1 39 Nordeste 60 Nordeste 0 -- -- 49
2020-01-20 15:00:00 6.4 35 Nordeste 57 Este 0 -- -- 48
2020-01-20 14:00:00 6.3 41 Nordeste 67 Nordeste 0 -- -- 45
2020-01-20 13:00:00 7 37 Nordeste 58 Nordeste 0 -- -- 41
2020-01-20 12:00:00 5.7 39 Nordeste 59 Nordeste 0 -- -- 37
2020-01-20 11:00:00 3.4 36 Nordeste 59 Nordeste 0 -- -- 42
2020-01-20 10:00:00 2.3 35 Nordeste 58 Nordeste 0 -- -- 44
2020-01-20 09:00:00 1.9 37 Nordeste 55 Nordeste 0 -- -- 45
2020-01-20 08:00:00 2 34 Nordeste 63 Nordeste 0 -- -- 45
2020-01-20 07:00:00 2.3 36 Nordeste 57 Nordeste 0 -- -- 44
2020-01-20 06:00:00 2.2 38 Nordeste 56 Nordeste 0 -- -- 44
2020-01-20 05:00:00 2.2 31 Nordeste 49 Nordeste 0 -- -- 45
2020-01-20 04:00:00 2.3 31 Nordeste 50 Nordeste 0 -- -- 46
2020-01-20 03:00:00 2.5 32 Nordeste 54 Nordeste 0 -- -- 47
2020-01-20 02:00:00 2.5 32 Nordeste 53 Nordeste 0 -- -- 46
2020-01-20 01:00:00 2.6 34 Nordeste 57 Nordeste 0 -- -- 47
2020-01-20 00:00:00 3.1 38 Nordeste 59 Nordeste 0 -- -- 46
2020-01-19 23:00:00 3.5 31 Nordeste 55 Nordeste 0 -- -- 43
2020-01-19 22:00:00 3.6 28 Nordeste 50 Nordeste 0 -- -- 44
2020-01-19 21:00:00 4.3 30 Nordeste 46 Nordeste 0 -- -- 41
2020-01-19 20:00:00 5 26 Nordeste 48 Nordeste 0 -- -- 38
2020-01-19 19:00:00 6.3 36 Nordeste 61 Nordeste 0 -- -- 34
2020-01-19 18:00:00 7.6 36 Nordeste 75 Nordeste 0 -- -- 32
2020-01-19 17:00:00 8.9 37 Nordeste 63 Nordeste 0 -- -- 30
2020-01-19 16:00:00 9.5 37 Nordeste 58 Nordeste 0 -- -- 35
2020-01-19 15:00:00 9.2 40 Nordeste 61 Nordeste 0 -- -- 39
2020-01-19 14:00:00 8.2 42 Nordeste 71 Nordeste 0 -- -- 40
2020-01-19 13:00:00 8.2 49 Nordeste 77 Nordeste 0 -- -- 45
2020-01-19 12:00:00 8.2 37 Nordeste 59 Nordeste 0 -- -- 60
2020-01-19 11:00:00 6.1 19 Nordeste 42 Norte 0 -- -- 85
2020-01-19 10:00:00 3.9 4 Este 8 Este 0.2 -- -- 96
2020-01-19 09:00:00 3 2 Nordeste 7 Nordeste 0.2 -- -- 96
2020-01-19 08:00:00 2.6 0 Calma 5 Sudoeste 0.2 -- -- 95
2020-01-19 07:00:00 2.4 0 Calma 8 Norte 0.2 -- -- 92
2020-01-19 06:00:00 2.7 4 Noroeste 11 Norte 0 -- -- 91
2020-01-19 05:00:00 2.8 2 Este 7 Nordeste 0 -- -- 90
2020-01-19 04:00:00 4.1 0 Calma 10 Este 0 -- -- 88
2020-01-19 03:00:00 4.9 5 Nordeste 15 Norte 0 -- -- 88
2020-01-19 02:00:00 3.7 4 Norte 12 Norte 0 -- -- 94
2020-01-19 01:00:00 5.9 0 Calma 5 Este 0 -- -- 93
2020-01-19 00:00:00 7.3 3 Nordeste 13 Oeste 1.2 -- -- 93
2020-01-18 23:00:00 6.9 4 Oeste 12 Sudoeste 0 -- -- 92
2020-01-18 22:00:00 8.1 8 Sudoeste 31 Oeste 0.6 -- -- 93
2020-01-18 21:00:00 8.6 10 Sudoeste 17 Sudoeste 0 -- -- 96
2020-01-18 20:00:00 8.8 10 Sudoeste 16 Sudoeste 0.6 -- -- 96
2020-01-18 19:00:00 8.8 9 Sudoeste 18 Sudoeste 0 -- -- 95
2020-01-18 18:00:00 9 13 Sudoeste 21 Sudoeste 0.2 -- -- 94
2020-01-18 17:00:00 9.1 10 Sudoeste 21 Sudoeste 0 -- -- 92
2020-01-18 16:00:00 8.9 7 Sudoeste 14 Sudoeste 0 -- -- 93
2020-01-18 15:00:00 8.3 8 Sudoeste 14 Sudoeste 0.2 -- -- 93
2020-01-18 14:00:00 8.5 8 Sudoeste 18 Sur 0 -- -- 87
2020-01-18 13:00:00 8.4 9 Sudoeste 13 Sudoeste 0 -- -- 86
2020-01-18 12:00:00 7.7 2 Oeste 6 Sudoeste 0 -- -- 86
2020-01-18 11:00:00 6.5 2 Oeste 5 Oeste 0 -- -- 89
2020-01-18 10:00:00 4.6 4 Nordeste 8 Nordeste 0 -- -- 92
2020-01-18 09:00:00 4 3 Este 8 Sudeste 0 -- -- 91
2020-01-18 08:00:00 3.8 2 Nordeste 10 Oeste 0 -- -- 88
2020-01-18 07:00:00 3.5 6 Este 10 Este 0 -- -- 85
2020-01-18 06:00:00 3.5 5 Nordeste 15 Nordeste 0 -- -- 84
2020-01-18 05:00:00 3.5 5 Este 12 Nordeste 0 -- -- 84
2020-01-18 04:00:00 2.8 6 Nordeste 9 Nordeste 0 -- -- 86
2020-01-18 03:00:00 2.3 2 Nordeste 7 Nordeste 0 -- -- 85
2020-01-18 02:00:00 2.8 3 Nordeste 10 Nordeste 0 -- -- 83
2020-01-18 01:00:00 3.3 7 Nordeste 12 Este 0 -- -- 83
2020-01-18 00:00:00 3.5 6 Nordeste 9 Nordeste 0 -- -- 85
2020-01-17 23:00:00 3.8 5 Este 11 Este 0 -- -- 90
2020-01-17 22:00:00 4.4 0 Calma 9 Este 0 -- -- 88
2020-01-17 21:00:00 6 3 Noroeste 11 Sudeste 0 -- -- 85
2020-01-17 20:00:00 7.6 6 Oeste 15 Oeste 0 -- -- 80
2020-01-17 19:00:00 8.7 8 Sudoeste 15 Oeste 0 -- -- 75
2020-01-17 18:00:00 10.6 5 Sur 19 Sudoeste 0 -- -- 66
2020-01-17 17:00:00 12.6 14 Sudoeste 26 Sudoeste 0 -- -- 54
2020-01-17 16:00:00 12.5 16 Sudoeste 29 Oeste 0 -- -- 56
2020-01-17 15:00:00 12.7 19 Oeste 34 Sudoeste 0 -- -- 57
2020-01-17 14:00:00 11.9 20 Oeste 32 Oeste 0 -- -- 65
2020-01-17 13:00:00 11.1 19 Sudoeste 28 Sudoeste 0 -- -- 75
2020-01-17 12:00:00 9.9 15 Sudoeste 26 Sudoeste 0 -- -- 81
2020-01-17 11:00:00 8.4 12 Sudoeste 25 Sudoeste 0 -- -- 87
2020-01-17 10:00:00 7.6 17 Sudoeste 27 Sudoeste 0 -- -- 89
2020-01-17 09:00:00 5.6 11 Sudoeste 23 Sudoeste 0 -- -- 92
2020-01-17 08:00:00 5.1 8 Sudoeste 15 Sudoeste 0 -- -- 88
2020-01-17 07:00:00 6.1 11 Oeste 18 Sudoeste 0 -- -- 85
2020-01-17 06:00:00 5.9 4 Sudoeste 10 Sur 0 -- -- 87
2020-01-17 05:00:00 4.3 6 Sudoeste 9 Nordeste 0 -- -- 85
2020-01-17 04:00:00 5.5 0 Calma 12 Sur 0 -- -- 79
2020-01-17 03:00:00 6.8 8 Sudoeste 17 Sudoeste 0 -- -- 77
2020-01-17 02:00:00 5.7 7 Sur 13 Sur 0 -- -- 83
2020-01-17 01:00:00 5.2 0 Calma 6 Norte 0 -- -- 89
2020-01-17 00:00:00 4.4 4 Nordeste 6 Nordeste 0 -- -- 90
2020-01-16 23:00:00 5.1 4 Nordeste 8 Nordeste 0 -- -- 89
2020-01-16 22:00:00 5.5 5 Nordeste 9 Nordeste 0 -- -- 85
2020-01-16 21:00:00 6.7 0 Calma 4 Norte 0 -- -- 81
2020-01-16 20:00:00 7.3 0 Calma 4 Oeste 0 -- -- 76
2020-01-16 19:00:00 9.3 5 Sur 9 Sur 0 -- -- 69
2020-01-16 18:00:00 11.6 4 Sudoeste 19 Sudoeste 0 -- -- 63
2020-01-16 17:00:00 13.9 10 Sudoeste 23 Sudoeste 0 -- -- 58
2020-01-16 16:00:00 14.1 12 Sudoeste 21 Sudoeste 0 -- -- 62
2020-01-16 15:00:00 13.1 10 Oeste 18 Sudoeste 0 -- -- 67
2020-01-16 14:00:00 11.9 9 Sudoeste 19 Sudoeste 0 -- -- 73
2020-01-16 13:00:00 11.6 8 Sudoeste 17 Sur 0 -- -- 75
2020-01-16 12:00:00 11.1 6 Sudoeste 15 Sur 0 -- -- 77
2020-01-16 11:00:00 9 0 Calma 10 Sur 0 -- -- 83
2020-01-16 10:00:00 7.4 0 Calma 6 Nordeste 0 -- -- 89
2020-01-16 09:00:00 6.9 0 Calma 6 Sur 0 -- -- 89
2020-01-16 08:00:00 6.5 0 Calma 8 Norte 0 -- -- 89
2020-01-16 07:00:00 6.6 3 Nordeste 5 Nordeste 0 -- -- 88
2020-01-16 06:00:00 6.6 3 Este 6 Este 0 -- -- 88
2020-01-16 05:00:00 6.6 2 Este 10 Nordeste 0 -- -- 87
2020-01-16 04:00:00 6.5 4 Este 8 Norte 0 -- -- 88
2020-01-16 03:00:00 6.7 2 Este 7 Nordeste 0 -- -- 86
2020-01-16 02:00:00 6.8 3 Nordeste 7 Este 0 -- -- 86
2020-01-16 01:00:00 6.9 5 Este 9 Este 0 -- -- 85
2020-01-16 00:00:00 7 5 Este 9 Este 0 -- -- 85
2020-01-15 23:00:00 7.4 5 Norte 9 Nordeste 0 -- -- 84
2020-01-15 22:00:00 7.1 3 Este 7 Este 0 -- -- 84
2020-01-15 21:00:00 7.4 0 Calma 5 Oeste 0 -- -- 83
2020-01-15 20:00:00 7.7 0 Calma 5 Este 0 -- -- 81
2020-01-15 19:00:00 8.2 0 Calma 4 Nordeste 0 -- -- 78
2020-01-15 18:00:00 9 0 Calma 5 Sudoeste 0 -- -- 75
2020-01-15 17:00:00 9.2 3 Sudoeste 7 Sudoeste 0 -- -- 74
2020-01-15 16:00:00 9.3 5 Sudoeste 13 Sur 0 -- -- 73
2020-01-15 15:00:00 8.9 6 Sur 12 Sur 0 -- -- 74
2020-01-15 14:00:00 8 0 Calma 6 Sur 0 -- -- 77
2020-01-15 13:00:00 7.6 4 Sudoeste 12 Sur 0 -- -- 79
2020-01-15 12:00:00 6.3 3 Sur 6 Noroeste 0 -- -- 84
2020-01-15 11:00:00 4.4 2 Sudeste 5 Este 0 -- -- 90
2020-01-15 10:00:00 2.3 3 Nordeste 8 Norte 0 -- -- 91
2020-01-15 09:00:00 1 4 Nordeste 9 Nordeste 0 -- -- 90
2020-01-15 08:00:00 2.8 5 Norte 9 Sudoeste 0 -- -- 88
2020-01-15 07:00:00 3.5 3 Oeste 18 Sur 0 -- -- 87
2020-01-15 06:00:00 1.3 3 Sur 10 Sur 0 -- -- 91
2020-01-15 05:00:00 2.6 2 Sudeste 4 Sudeste 0 -- -- 85
2020-01-15 04:00:00 3.5 0 Calma 3 Norte 0 -- -- 87
2020-01-15 03:00:00 3.7 0 Calma 5 Sudeste 0 -- -- 85
2020-01-15 02:00:00 3.7 0 Calma 5 Este 0 -- -- 85
2020-01-15 01:00:00 3.2 0 Calma 4 Nordeste 0 -- -- 87
2020-01-15 00:00:00 2.7 3 Nordeste 6 Este 0 -- -- 88
2020-01-14 23:00:00 2.3 4 Nordeste 5 Nordeste 0 -- -- 87
2020-01-14 22:00:00 2.3 4 Este 8 Nordeste 0 -- -- 85
2020-01-14 21:00:00 2.5 4 Nordeste 6 Este 0 -- -- 84
2020-01-14 20:00:00 2.5 2 Nordeste 4 Sur 0 -- -- 84
2020-01-14 19:00:00 3.7 0 Calma 5 Sudoeste 0 -- -- 76
2020-01-14 18:00:00 6.9 5 Sudoeste 12 Oeste 0 -- -- 69
2020-01-14 17:00:00 9.1 8 Oeste 17 Sudoeste 0 -- -- 63
2020-01-14 16:00:00 9.6 7 Sudoeste 19 Sudoeste 0 -- -- 61
2020-01-14 15:00:00 9.1 12 Oeste 22 Sudoeste 0 -- -- 63
2020-01-14 14:00:00 8 8 Oeste 16 Sudoeste 0 -- -- 65
2020-01-14 13:00:00 6.6 2 Sudoeste 6 Nordeste 0 -- -- 69
2020-01-14 12:00:00 3.7 2 Este 9 Nordeste 0 -- -- 77
2020-01-14 11:00:00 0.8 4 Este 8 Este 0 -- -- 86
2020-01-14 10:00:00 -2.2 4 Este 9 Nordeste 0 -- -- 93
2020-01-14 09:00:00 -4.8 4 Nordeste 6 Este 0 -- -- 93
2020-01-14 08:00:00 -4.6 3 Este 7 Nordeste 0 -- -- 93
2020-01-14 07:00:00 -4.5 4 Nordeste 10 Nordeste 0 -- -- 93
2020-01-14 06:00:00 -4.5 5 Este 6 Nordeste 0 -- -- 93
2020-01-14 05:00:00 -4.4 3 Nordeste 5 Nordeste 0 -- -- 91
2020-01-14 04:00:00 -3.5 5 Este 10 Nordeste 0 -- -- 92
2020-01-14 03:00:00 -3.5 4 Nordeste 9 Nordeste 0 -- -- 92
2020-01-14 02:00:00 -2.9 5 Nordeste 8 Nordeste 0 -- -- 91
2020-01-14 01:00:00 -2.8 6 Nordeste 9 Nordeste 0 -- -- 91
2020-01-14 00:00:00 -2.7 5 Nordeste 9 Nordeste 0 -- -- 90
2020-01-13 23:00:00 -2.4 3 Nordeste 5 Nordeste 0 -- -- 87
2020-01-13 22:00:00 -1.3 3 Nordeste 5 Nordeste 0 -- -- 85
2020-01-13 21:00:00 0.6 0 Calma 6 Sur 0 -- -- 79
2020-01-13 20:00:00 2.6 3 Sur 9 Sur 0 -- -- 74
2020-01-13 19:00:00 3.9 3 Sudoeste 10 Sur 0 -- -- 71
2020-01-13 18:00:00 7 3 Sudoeste 16 Sudoeste 0 -- -- 62
2020-01-13 17:00:00 8.6 12 Sudoeste 22 Sudoeste 0 -- -- 57
2020-01-13 16:00:00 9.4 11 Sudoeste 18 Sudoeste 0 -- -- 56
2020-01-13 15:00:00 8.8 5 Sudoeste 9 Sudoeste 0 -- -- 58
2020-01-13 14:00:00 6.9 5 Oeste 10 Oeste 0 -- -- 64
2020-01-13 13:00:00 5 3 Sudoeste 6 Noroeste 0 -- -- 69
2020-01-13 12:00:00 1.9 0 Calma 7 Este 0 -- -- 79
2020-01-13 11:00:00 -0.6 5 Nordeste 8 Nordeste 0 -- -- 87
2020-01-13 10:00:00 -2.9 0 Calma 4 Este 0 -- -- 93
2020-01-13 09:00:00 -5.5 2 Nordeste 5 Norte 0 -- -- 91
2020-01-13 08:00:00 -4.9 4 Nordeste 8 Nordeste 0 -- -- 91
2020-01-13 07:00:00 -5.4 2 Este 5 Este 0 -- -- 91
2020-01-13 06:00:00 -5 2 Este 7 Nordeste 0 -- -- 89
2020-01-13 05:00:00 -4.1 3 Nordeste 8 Nordeste 0 -- -- 89
2020-01-13 04:00:00 -3.4 6 Este 9 Nordeste 0 -- -- 91
2020-01-13 03:00:00 -4 2 Este 8 Nordeste 0 -- -- 89
2020-01-13 02:00:00 -3.3 6 Nordeste 10 Nordeste 0 -- -- 90
2020-01-13 01:00:00 -3.1 4 Este 8 Nordeste 0 -- -- 88
2020-01-13 00:00:00 -2.9 6 Nordeste 8 Nordeste 0 -- -- 89
2020-01-12 23:00:00 -2.6 4 Nordeste 9 Nordeste 0 -- -- 88
2020-01-12 22:00:00 -2.1 4 Nordeste 7 Nordeste 0 -- -- 85
2020-01-12 21:00:00 -1 4 Nordeste 5 Nordeste 0 -- -- 82
2020-01-12 20:00:00 0.8 4 Nordeste 5 Nordeste 0 -- -- 76
2020-01-12 19:00:00 4.4 0 Calma 4 Sur 0 -- -- 61
2020-01-12 18:00:00 9.1 3 Oeste 6 Noroeste 0 -- -- 48
2020-01-12 17:00:00 10.9 3 Oeste 8 Oeste 0 -- -- 44
2020-01-12 16:00:00 10.6 2 Sudoeste 10 Oeste 0 -- -- 48
2020-01-12 15:00:00 9.5 4 Sudoeste 10 Oeste 0 -- -- 52
2020-01-12 14:00:00 8.2 3 Sudoeste 8 Sudoeste 0 -- -- 56
2020-01-12 13:00:00 6.1 0 Calma 7 Nordeste 0 -- -- 64
2020-01-12 12:00:00 3.6 4 Este 9 Nordeste 0 -- -- 68
2020-01-12 11:00:00 0.8 9 Nordeste 12 Nordeste 0 -- -- 76
2020-01-12 10:00:00 -2.3 5 Nordeste 8 Nordeste 0 -- -- 86
2020-01-12 09:00:00 -5 3 Nordeste 6 Nordeste 0 -- -- 89
2020-01-12 08:00:00 -4.4 3 Este 10 Nordeste 0 -- -- 85
2020-01-12 07:00:00 -3.9 5 Nordeste 11 Nordeste 0 -- -- 86
2020-01-12 06:00:00 -3.7 4 Nordeste 13 Nordeste 0 -- -- 86
2020-01-12 05:00:00 -3.8 6 Nordeste 10 Nordeste 0 -- -- 88
2020-01-12 04:00:00 -3.5 5 Este 10 Nordeste 0 -- -- 88
2020-01-12 03:00:00 -3.9 5 Nordeste 8 Nordeste 0 -- -- 89
2020-01-12 02:00:00 -2.9 0 Calma 9 Nordeste 0 -- -- 86
2020-01-12 01:00:00 -2.5 5 Nordeste 7 Nordeste 0 -- -- 86
2020-01-12 00:00:00 -1.9 6 Este 9 Nordeste 0 -- -- 86
2020-01-11 23:00:00 -2.2 4 Este 8 Nordeste 0 -- -- 84
2020-01-11 22:00:00 -1.4 5 Nordeste 6 Nordeste 0 -- -- 84
2020-01-11 21:00:00 -0.1 5 Nordeste 7 Nordeste 0 -- -- 79
2020-01-11 20:00:00 2.1 4 Nordeste 5 Nordeste 0 -- -- 71
2020-01-11 19:00:00 5.6 0 Calma 5 Sur 0 -- -- 57
2020-01-11 18:00:00 10.1 0 Calma 9 Sudoeste 0 -- -- 48
2020-01-11 17:00:00 12.2 5 Oeste 10 Sudoeste 0 -- -- 40
2020-01-11 16:00:00 12.3 5 Oeste 10 Sudoeste 0 -- -- 40
2020-01-11 15:00:00 11.8 0 Calma 8 Este 0 -- -- 43
2020-01-11 14:00:00 10.6 2 Nordeste 9 Este 0 -- -- 47
2020-01-11 13:00:00 8.9 5 Nordeste 12 Este 0 -- -- 56
2020-01-11 12:00:00 6.1 6 Nordeste 10 Este 0 -- -- 66
2020-01-11 11:00:00 3.3 8 Nordeste 18 Nordeste 0 -- -- 76
2020-01-11 10:00:00 0 6 Nordeste 10 Nordeste 0 -- -- 89
2020-01-11 09:00:00 -3 5 Nordeste 9 Nordeste 0 -- -- 94
2020-01-11 08:00:00 -4.1 3 Este 5 Nordeste 0 -- -- 93
2020-01-11 07:00:00 -4.1 2 Oeste 6 Norte 0 -- -- 91
2020-01-11 06:00:00 -3.3 0 Calma 6 Nordeste 0 -- -- 91
2020-01-11 05:00:00 -3.1 0 Calma 3 Norte 0 -- -- 89
2020-01-11 04:00:00 -1.5 0 Calma 9 Nordeste 0 -- -- 87
2020-01-11 03:00:00 -1.6 4 Nordeste 8 Este 0 -- -- 90
2020-01-11 02:00:00 -1.3 2 Este 5 Sudeste 0 -- -- 88
2020-01-11 01:00:00 0.5 2 Sur 9 Norte 0 -- -- 81
2020-01-11 00:00:00 0.2 4 Oeste 9 Sur 0 -- -- 83
2020-01-10 23:00:00 1.2 3 Sudeste 11 Nordeste 0 -- -- 78
2020-01-10 22:00:00 1.8 9 Nordeste 12 Nordeste 0 -- -- 79
2020-01-10 21:00:00 3.6 4 Este 10 Nordeste 0 -- -- 70
2020-01-10 20:00:00 5.1 6 Nordeste 15 Nordeste 0 -- -- 66
2020-01-10 19:00:00 7.6 6 Norte 18 Noroeste 0 -- -- 57
2020-01-10 18:00:00 9.7 11 Norte 29 Nordeste 0 -- -- 51
2020-01-10 17:00:00 11.1 20 Nordeste 35 Nordeste 0 -- -- 44
2020-01-10 16:00:00 11.2 22 Nordeste 39 Nordeste 0 -- -- 45
2020-01-10 15:00:00 11.6 21 Nordeste 33 Nordeste 0 -- -- 44
2020-01-10 14:00:00 11.6 17 Nordeste 31 Norte 0 -- -- 42
2020-01-10 13:00:00 10.6 14 Nordeste 24 Nordeste 0 -- -- 46
2020-01-10 12:00:00 8.8 11 Nordeste 18 Este 0 -- -- 63
2020-01-10 11:00:00 5.4 8 Este 13 Este 0 -- -- 79
2020-01-10 10:00:00 1.9 3 Nordeste 6 Este 0 -- -- 94
2020-01-10 09:00:00 -0.4 0 Calma 13 Nordeste 0 -- -- 92
2020-01-10 08:00:00 -0.2 4 Este 14 Nordeste 0 -- -- 94
2020-01-10 07:00:00 -1.2 7 Nordeste 10 Este 0 -- -- 95
2020-01-10 06:00:00 -0.9 5 Nordeste 8 Noroeste 0 -- -- 96
2020-01-10 05:00:00 -0.6 2 Este 6 Este 0 -- -- 92
2020-01-10 04:00:00 0.9 0 Calma 9 Nordeste 0 -- -- 93
2020-01-10 03:00:00 1.6 4 Nordeste 8 Nordeste 0 -- -- 91
2020-01-10 02:00:00 3.3 4 Este 9 Nordeste 0 -- -- 91
2020-01-10 01:00:00 2.6 4 Nordeste 9 Nordeste 0 -- -- 93
2020-01-10 00:00:00 2.5 6 Nordeste 8 Nordeste 0 -- -- 90
2020-01-09 23:00:00 4.1 3 Norte 5 Noroeste 0 -- -- 84
2020-01-09 22:00:00 5.7 0 Calma 7 Nordeste 0 -- -- 83
2020-01-09 21:00:00 6.5 0 Calma 4 Este 0 -- -- 81
2020-01-09 20:00:00 6.2 4 Sur 5 Sur 0 -- -- 81
2020-01-09 19:00:00 7.9 5 Sur 8 Sur 0 -- -- 72
2020-01-09 18:00:00 11 5 Sur 13 Oeste 0 -- -- 63
2020-01-09 17:00:00 13.5 6 Sudoeste 14 Oeste 0 -- -- 56
2020-01-09 16:00:00 14.3 3 Sudoeste 14 Oeste 0 -- -- 54
2020-01-09 15:00:00 13.4 5 Oeste 16 Oeste 0 -- -- 55
2020-01-09 14:00:00 12.5 5 Sudoeste 13 Oeste 0 -- -- 57
2020-01-09 13:00:00 11.1 6 Noroeste 12 Oeste 0 -- -- 61
2020-01-09 12:00:00 8 0 Calma 10 Este 0 -- -- 73
2020-01-09 11:00:00 5 5 Este 10 Este 0 -- -- 81
2020-01-09 10:00:00 1.8 4 Nordeste 8 Nordeste 0 -- -- 93
2020-01-09 09:00:00 -1 5 Nordeste 8 Nordeste 0 -- -- 93
2020-01-09 08:00:00 -1 3 Nordeste 8 Nordeste 0 -- -- 93
2020-01-09 07:00:00 -1 2 Nordeste 7 Nordeste 0 -- -- 92
2020-01-09 06:00:00 -0.4 6 Este 9 Nordeste 0 -- -- 92
2020-01-09 05:00:00 -0.5 5 Nordeste 8 Nordeste 0 -- -- 91
2020-01-09 04:00:00 0.1 6 Nordeste 8 Nordeste 0 -- -- 90
2020-01-09 03:00:00 0.6 4 Este 8 Nordeste 0 -- -- 89
2020-01-09 02:00:00 0.8 6 Nordeste 8 Nordeste 0 -- -- 88
2020-01-09 01:00:00 1.3 4 Nordeste 8 Nordeste 0 -- -- 84
2020-01-09 00:00:00 1.8 5 Nordeste 8 Nordeste 0 -- -- 85
2020-01-08 23:00:00 2.6 4 Nordeste 8 Nordeste 0 -- -- 80
2020-01-08 22:00:00 3.4 3 Nordeste 6 Nordeste 0 -- -- 78
2020-01-08 21:00:00 4 2 Nordeste 5 Oeste 0 -- -- 76
2020-01-08 20:00:00 5.5 0 Calma 5 Sudeste 0 -- -- 70
2020-01-08 19:00:00 8.9 0 Calma 4 Sur 0 -- -- 58
2020-01-08 18:00:00 13.8 2 Sudoeste 6 Sur 0 -- -- 46
2020-01-08 17:00:00 16.2 3 Oeste 8 Oeste 0 -- -- 37
2020-01-08 16:00:00 16.1 6 Sudoeste 9 Sudoeste 0 -- -- 34
2020-01-08 15:00:00 15.5 2 Oeste 6 Sudoeste 0 -- -- 37
2020-01-08 14:00:00 13.6 2 Noroeste 6 Oeste 0 -- -- 39
2020-01-08 13:00:00 11.1 3 Este 8 Este 0 -- -- 46
2020-01-08 12:00:00 8.2 4 Este 13 Nordeste 0 -- -- 51
2020-01-08 11:00:00 4.8 6 Nordeste 12 Nordeste 0 -- -- 64
2020-01-08 10:00:00 1.4 7 Nordeste 9 Nordeste 0 -- -- 80
2020-01-08 09:00:00 -2.1 4 Nordeste 8 Nordeste 0 -- -- 91
2020-01-08 08:00:00 -2.9 4 Nordeste 5 Nordeste 0 -- -- 92
2020-01-08 07:00:00 -2.8 4 Nordeste 6 Nordeste 0 -- -- 93
2020-01-08 06:00:00 -2.8 0 Calma 4 Norte 0 -- -- 91
2020-01-08 05:00:00 -2.6 2 Nordeste 4 Este 0 -- -- 90
2020-01-08 04:00:00 -1.8 4 Nordeste 6 Este 0 -- -- 90
2020-01-08 03:00:00 -0.9 5 Nordeste 10 Nordeste 0 -- -- 88
2020-01-08 02:00:00 -0.6 7 Nordeste 10 Nordeste 0 -- -- 88
2020-01-08 01:00:00 -0.5 5 Nordeste 10 Nordeste 0 -- -- 88
2020-01-08 00:00:00 -0.6 5 Este 9 Nordeste 0 -- -- 88
2020-01-07 23:00:00 -0.9 3 Nordeste 7 Este 0 -- -- 85
2020-01-07 22:00:00 0.4 3 Este 8 Nordeste 0 -- -- 85
2020-01-07 21:00:00 1.2 5 Nordeste 8 Nordeste 0 -- -- 82
2020-01-07 20:00:00 3.4 5 Nordeste 6 Nordeste 0 -- -- 77
2020-01-07 19:00:00 6.3 3 Nordeste 6 Sudoeste 0 -- -- 68
2020-01-07 18:00:00 11.2 5 Sudoeste 10 Sudoeste 0 -- -- 52
2020-01-07 17:00:00 14.1 7 Oeste 10 Oeste 0 -- -- 42
2020-01-07 16:00:00 14.7 4 Sudoeste 8 Sudoeste 0 -- -- 37
2020-01-07 15:00:00 14.3 2 Sur 6 Sudoeste 0 -- -- 41
2020-01-07 14:00:00 11.9 0 Calma 9 Nordeste 0 -- -- 46
2020-01-07 13:00:00 9.6 4 Nordeste 13 Este 0 -- -- 51
2020-01-07 12:00:00 6.5 6 Este 17 Este 0 -- -- 61
2020-01-07 11:00:00 3.5 9 Nordeste 18 Nordeste 0 -- -- 70
2020-01-07 10:00:00 0.5 8 Nordeste 13 Nordeste 0 -- -- 82
2020-01-07 09:00:00 -2.1 6 Este 13 Nordeste 0 -- -- 88
2020-01-07 08:00:00 -2.1 6 Nordeste 14 Nordeste 0 -- -- 89
2020-01-07 07:00:00 -2.4 5 Este 9 Este 0 -- -- 91
2020-01-07 06:00:00 -1.9 6 Nordeste 11 Nordeste 0 -- -- 91
2020-01-07 05:00:00 -2.2 6 Nordeste 9 Nordeste 0 -- -- 92
2020-01-07 04:00:00 -1.7 5 Nordeste 8 Nordeste 0 -- -- 93
2020-01-07 03:00:00 -1.2 5 Este 9 Nordeste 0 -- -- 93
2020-01-07 02:00:00 -1.2 7 Nordeste 10 Nordeste 0 -- -- 93
2020-01-07 01:00:00 -1.4 2 Nordeste 5 Este 0 -- -- 91
2020-01-07 00:00:00 -0.8 3 Nordeste 4 Nordeste 0 -- -- 90
2020-01-06 23:00:00 0.2 0 Calma 9 Nordeste 0 -- -- 88
2020-01-06 22:00:00 0.8 3 Este 7 Nordeste 0 -- -- 87
2020-01-06 21:00:00 1.6 2 Este 6 Nordeste 0 -- -- 84
2020-01-06 20:00:00 3.4 5 Nordeste 6 Nordeste 0 -- -- 81
2020-01-06 19:00:00 6.3 0 Calma 6 Sur 0 -- -- 73
2020-01-06 18:00:00 11.3 3 Oeste 8 Oeste 0 -- -- 56
2020-01-06 17:00:00 13.6 5 Oeste 11 Sudoeste 0 -- -- 50
2020-01-06 16:00:00 14.3 5 Oeste 10 Oeste 0 -- -- 49
2020-01-06 15:00:00 13.8 3 Oeste 8 Oeste 0 -- -- 51
2020-01-06 14:00:00 11.7 3 Sudoeste 6 Sudoeste 0 -- -- 53
2020-01-06 13:00:00 9.1 0 Calma 8 Este 0 -- -- 65
2020-01-06 12:00:00 6.1 5 Nordeste 10 Nordeste 0 -- -- 74
2020-01-06 11:00:00 2.7 6 Nordeste 9 Nordeste 0 -- -- 88
2020-01-06 10:00:00 -0.4 4 Nordeste 6 Nordeste 0 -- -- 96